Time;durP1;ratioP1;P1;durP2;ratioP2;P2;SDS_P1;SDS_P2;PMS_P1;PMS_P2;Temp;Humidity;BMP_temperature;BMP_pressure;BME280_temperature;BME280_humidity;BME280_pressure;Samples;Min_cycle;Max_cycle;Signal;HPM_P1;HPM_P2
2022/04/15 00:01:09;;;;;;;36.50;14.43;;;4.10;99.90;;;;;;4863899;29;20727;-62
2022/04/15 00:03:35;;;;;;;35.87;14.70;;;4.20;99.90;;;;;;4880669;29;20184;-63
2022/04/15 00:06:01;;;;;;;31.43;14.43;;;4.30;99.90;;;;;;4863879;29;20735;-62
2022/04/15 00:08:27;;;;;;;35.40;14.23;;;4.40;99.90;;;;;;4880247;29;20276;-63
2022/04/15 00:10:53;;;;;;;37.30;15.87;;;4.40;99.90;;;;;;4880727;29;20520;-63
2022/04/15 00:13:24;;;;;;;32.53;15.40;;;4.40;99.90;;;;;;4880140;29;20187;-63
2022/04/15 00:15:51;;;;;;;35.20;15.20;;;4.40;99.90;;;;;;4880464;29;20196;-63
2022/04/15 00:18:17;;;;;;;30.57;14.33;;;4.40;99.90;;;;;;4879921;29;20239;-62
2022/04/15 00:20:43;;;;;;;27.10;13.13;;;4.30;99.90;;;;;;4880411;29;20194;-62
2022/04/15 00:23:09;;;;;;;31.10;13.37;;;4.30;99.90;;;;;;4863446;29;20217;-62
2022/04/15 00:25:35;;;;;;;32.87;14.37;;;4.30;99.90;;;;;;4880255;29;20254;-62
2022/04/15 00:28:00;;;;;;;34.23;15.17;;;4.30;99.90;;;;;;4880311;29;20230;-63
2022/04/15 00:30:26;;;;;;;40.27;15.37;;;4.20;99.90;;;;;;4879835;29;20572;-63
2022/04/15 00:32:52;;;;;;;33.87;14.50;;;4.10;99.90;;;;;;4863336;29;20190;-62
2022/04/15 00:35:18;;;;;;;29.27;13.70;;;4.00;99.90;;;;;;4879731;29;20297;-63
2022/04/15 00:37:45;;;;;;;29.60;14.80;;;4.00;99.90;;;;;;4879889;29;20598;-63
2022/04/15 00:40:11;;;;;;;34.40;14.43;;;3.90;99.90;;;;;;4878752;29;20188;-63
2022/04/15 00:42:37;;;;;;;32.37;14.30;;;3.90;99.90;;;;;;4879830;29;20223;-63
2022/04/15 00:45:03;;;;;;;35.30;14.83;;;3.90;99.90;;;;;;4879896;29;20242;-64
2022/04/15 00:47:51;;;;;;;33.33;14.93;;;3.80;99.90;;;;;;4879821;29;20550;-63
2022/04/15 00:50:18;;;;;;;35.53;13.97;;;3.80;99.90;;;;;;4879564;29;20187;-63
2022/04/15 00:52:46;;;;;;;26.93;12.43;;;3.70;99.90;;;;;;4879683;29;20590;-64
2022/04/15 00:55:14;;;;;;;23.37;11.50;;;3.60;99.90;;;;;;4879354;29;20326;-63
2022/04/15 00:57:42;;;;;;;25.93;12.10;;;3.60;99.90;;;;;;4879718;29;20258;-64
2022/04/15 01:00:10;;;;;;;33.73;14.67;;;3.40;99.90;;;;;;4878757;29;20202;-63
2022/04/15 01:02:37;;;;;;;34.20;15.00;;;3.40;99.90;;;;;;4879238;29;20656;-63
2022/04/15 01:05:05;;;;;;;31.47;14.47;;;3.30;99.90;;;;;;4879381;29;20219;-63
2022/04/15 01:07:36;;;;;;;34.53;14.20;;;3.30;99.90;;;;;;4879383;29;20230;-63
2022/04/15 01:10:06;;;;;;;36.30;14.23;;;3.30;99.90;;;;;;4879659;29;20247;-63
2022/04/15 01:12:35;;;;;;;30.63;13.17;;;3.30;99.90;;;;;;4879100;29;20234;-63
2022/04/15 01:15:07;;;;;;;30.40;12.50;;;3.30;99.90;;;;;;4879777;29;20601;-63
2022/04/15 01:17:36;;;;;;;30.67;13.97;;;3.30;99.90;;;;;;4879061;29;20183;-63
2022/04/15 01:20:07;;;;;;;26.87;13.23;;;3.30;99.90;;;;;;4879427;29;20192;-63
2022/04/15 01:23:14;;;;;;;28.67;13.13;;;3.20;99.90;;;;;;4879205;29;20640;-62
2022/04/15 01:25:39;;;;;;;36.47;14.73;;;3.20;99.90;;;;;;4876206;29;20312;-63
2022/04/15 01:28:06;;;;;;;33.93;14.63;;;3.20;99.90;;;;;;4879185;29;20294;-63
2022/04/15 01:30:32;;;;;;;36.57;14.40;;;3.20;99.90;;;;;;4878923;29;20662;-63
2022/04/15 01:32:58;;;;;;;39.80;16.50;;;3.10;99.90;;;;;;4879086;29;20229;-63
2022/04/15 01:35:23;;;;;;;39.23;16.10;;;3.10;99.90;;;;;;4862192;29;20213;-63
2022/04/15 01:37:50;;;;;;;36.63;17.00;;;3.10;99.90;;;;;;4878891;29;20200;-63
2022/04/15 01:40:18;;;;;;;32.60;16.10;;;3.00;99.90;;;;;;4878519;29;20543;-62
2022/04/15 01:42:45;;;;;;;33.53;15.30;;;3.00;99.90;;;;;;4879129;29;20268;-63
2022/04/15 01:45:11;;;;;;;34.93;14.57;;;2.90;99.90;;;;;;4878875;29;20228;-63
2022/04/15 01:47:37;;;;;;;27.93;14.43;;;2.90;99.90;;;;;;4878678;29;20231;-63
2022/04/15 01:50:05;;;;;;;36.60;14.83;;;2.90;99.90;;;;;;4878922;29;20712;-63
2022/04/15 01:52:31;;;;;;;33.50;15.00;;;2.80;99.90;;;;;;4878417;29;20198;-63
2022/04/15 01:54:56;;;;;;;43.10;15.30;;;2.80;99.90;;;;;;4876902;29;20195;-63
2022/04/15 01:57:22;;;;;;;41.00;14.47;;;2.70;99.90;;;;;;4878547;29;20587;-63
2022/04/15 01:59:48;;;;;;;39.70;15.00;;;2.70;99.90;;;;;;4878663;29;20174;-63
2022/04/15 02:02:14;;;;;;;35.63;15.23;;;2.70;99.90;;;;;;4878167;29;20670;-63
2022/04/15 02:04:40;;;;;;;31.13;14.87;;;2.80;99.90;;;;;;4878239;29;20319;-63
2022/04/15 02:07:06;;;;;;;30.53;14.47;;;2.80;99.90;;;;;;4878652;29;20194;-63
2022/04/15 02:09:31;;;;;;;35.27;15.67;;;2.80;99.90;;;;;;4878020;29;20191;-63
2022/04/15 02:11:58;;;;;;;31.43;14.70;;;2.80;99.90;;;;;;4878434;29;20714;-63
2022/04/15 02:14:24;;;;;;;36.17;14.40;;;2.80;99.90;;;;;;4878138;29;20277;-63
2022/04/15 02:16:52;;;;;;;31.73;15.50;;;2.70;99.90;;;;;;4878112;29;20220;-63
2022/04/15 02:19:17;;;;;;;34.00;16.17;;;2.70;99.90;;;;;;4877972;29;20186;-63
2022/04/15 02:21:43;;;;;;;41.90;16.77;;;2.60;99.90;;;;;;4878061;29;20673;-63
2022/04/15 02:24:09;;;;;;;42.37;17.90;;;2.60;99.90;;;;;;4878291;29;20258;-63
2022/04/15 02:26:34;;;;;;;34.53;16.13;;;2.60;99.90;;;;;;4878183;29;20261;-64
2022/04/15 02:29:00;;;;;;;36.80;16.80;;;2.50;99.90;;;;;;4846516;29;20712;-63
2022/04/15 02:31:26;;;;;;;36.20;16.00;;;2.50;99.90;;;;;;4861248;29;20699;-63
2022/04/15 02:33:52;;;;;;;37.67;17.90;;;2.40;99.90;;;;;;4878046;29;20186;-63
2022/04/15 02:36:18;;;;;;;40.30;16.77;;;2.40;99.90;;;;;;4860990;29;20554;-63
2022/04/15 02:38:44;;;;;;;31.97;15.93;;;2.40;99.90;;;;;;4877896;29;20218;-63
2022/04/15 02:41:10;;;;;;;32.77;15.60;;;2.30;99.90;;;;;;4878036;29;20275;-63
2022/04/15 02:43:38;;;;;;;38.37;15.97;;;2.30;99.90;;;;;;4878023;29;20190;-63
2022/04/15 02:46:06;;;;;;;41.87;15.97;;;2.30;99.90;;;;;;4878119;29;20218;-64
2022/04/15 02:48:33;;;;;;;41.87;16.30;;;2.30;99.90;;;;;;4877564;29;20197;-63
2022/04/15 02:50:59;;;;;;;40.10;16.27;;;2.30;99.90;;;;;;4876628;29;20542;-64
2022/04/15 02:53:25;;;;;;;41.70;16.77;;;2.30;99.90;;;;;;4877811;29;20674;-63
2022/04/15 02:55:52;;;;;;;35.07;17.03;;;2.30;99.90;;;;;;4877904;29;20228;-63
2022/04/15 02:58:18;;;;;;;46.43;16.73;;;2.30;99.90;;;;;;4877576;29;20186;-63
2022/04/15 03:00:44;;;;;;;38.47;16.37;;;2.20;99.90;;;;;;4877714;29;20300;-63
2022/04/15 03:03:11;;;;;;;38.17;16.03;;;2.20;99.90;;;;;;4877824;29;20700;-64
2022/04/15 03:05:38;;;;;;;38.97;17.40;;;2.20;99.90;;;;;;4877308;29;20216;-63
2022/04/15 03:08:04;;;;;;;34.87;15.60;;;2.20;99.90;;;;;;4861447;29;20668;-63
2022/04/15 03:10:29;;;;;;;36.73;16.43;;;2.20;99.90;;;;;;4860822;29;20205;-63
2022/04/15 03:12:55;;;;;;;31.73;15.23;;;2.20;99.90;;;;;;4877840;29;20189;-63
2022/04/15 03:15:21;;;;;;;39.40;16.67;;;2.20;99.90;;;;;;4860848;29;20260;-63
2022/04/15 03:17:46;;;;;;;34.47;15.97;;;2.20;99.90;;;;;;4877613;29;20186;-62
2022/04/15 03:20:13;;;;;;;38.00;16.13;;;2.10;99.90;;;;;;4877402;29;20766;-63
2022/04/15 03:22:41;;;;;;;41.20;15.93;;;2.10;99.90;;;;;;4877539;29;20250;-67
2022/04/15 03:25:10;;;;;;;38.87;15.30;;;2.10;99.90;;;;;;4880037;29;20221;-63
2022/04/15 03:27:35;;;;;;;34.37;15.60;;;2.10;99.90;;;;;;4880982;29;20273;-61
2022/04/15 03:30:02;;;;;;;43.10;17.77;;;2.10;99.90;;;;;;4881004;29;20583;-63
2022/04/15 03:32:29;;;;;;;41.97;16.83;;;2.10;99.90;;;;;;4880613;29;20217;-63
2022/04/15 03:34:56;;;;;;;38.90;15.17;;;2.20;99.90;;;;;;4880390;29;20669;-62
2022/04/15 03:37:22;;;;;;;33.20;15.23;;;2.20;99.90;;;;;;4880394;29;20185;-62
2022/04/15 03:39:48;;;;;;;34.70;14.60;;;2.20;99.90;;;;;;4880600;29;20190;-62
2022/04/15 03:42:14;;;;;;;44.03;15.83;;;2.10;99.90;;;;;;4880759;29;20204;-62
2022/04/15 03:44:40;;;;;;;37.23;15.53;;;2.10;99.90;;;;;;4880208;29;20226;-62
2022/04/15 03:47:06;;;;;;;27.63;13.77;;;2.10;99.90;;;;;;4879397;29;20194;-62
2022/04/15 03:49:33;;;;;;;40.07;14.60;;;2.20;99.90;;;;;;4879917;29;20241;-62
2022/04/15 03:51:59;;;;;;;36.60;14.33;;;2.30;99.90;;;;;;4880792;29;20197;-63
2022/04/15 03:54:24;;;;;;;43.40;15.03;;;2.40;99.90;;;;;;4879756;29;20538;-62
2022/04/15 03:56:50;;;;;;;33.03;14.17;;;2.50;99.90;;;;;;4880014;29;20290;-63
2022/04/15 03:59:16;;;;;;;28.93;12.77;;;2.60;99.90;;;;;;4879877;29;20702;-63
2022/04/15 04:01:42;;;;;;;30.20;13.53;;;2.70;99.90;;;;;;4879895;29;20754;-63
2022/04/15 04:04:08;;;;;;;25.03;12.03;;;2.70;99.90;;;;;;4863513;29;20212;-63
2022/04/15 04:06:34;;;;;;;39.27;14.87;;;2.80;99.90;;;;;;4880137;29;20212;-64
2022/04/15 04:09:00;;;;;;;39.70;14.57;;;2.80;99.90;;;;;;4880303;29;20595;-63
2022/04/15 04:11:26;;;;;;;30.27;13.60;;;2.90;99.90;;;;;;4878609;29;20197;-63
2022/04/15 04:13:51;;;;;;;40.90;13.63;;;2.90;99.90;;;;;;4880288;29;20295;-63
2022/04/15 04:16:18;;;;;;;35.70;13.57;;;3.00;99.90;;;;;;4880013;29;20233;-64
2022/04/15 04:18:44;;;;;;;33.30;14.77;;;3.00;99.90;;;;;;4879418;29;20282;-64
2022/04/15 04:21:11;;;;;;;39.33;13.93;;;3.00;99.90;;;;;;4879885;29;20239;-65
2022/04/15 04:23:37;;;;;;;40.40;13.90;;;3.10;99.90;;;;;;4879408;29;20286;-65
2022/04/15 04:26:03;;;;;;;50.03;15.37;;;3.20;99.90;;;;;;4879740;29;20254;-64
2022/04/15 04:28:29;;;;;;;36.33;13.67;;;3.30;99.90;;;;;;4879102;29;20190;-63
2022/04/15 04:30:55;;;;;;;25.93;10.43;;;3.40;99.90;;;;;;4862499;29;20182;-63
2022/04/15 04:33:21;;;;;;;33.00;13.13;;;3.40;99.90;;;;;;4879349;29;20192;-63
2022/04/15 04:35:47;;;;;;;30.23;12.23;;;3.60;99.90;;;;;;4878953;29;20187;-63
2022/04/15 04:38:13;;;;;;;23.87;11.50;;;3.70;99.90;;;;;;4878589;29;20187;-63
2022/04/15 04:40:40;;;;;;;45.90;14.20;;;3.80;99.90;;;;;;4878316;29;20231;-63
2022/04/15 04:43:07;;;;;;;25.87;11.97;;;4.00;99.90;;;;;;4878909;29;20320;-65
2022/04/15 04:45:33;;;;;;;35.17;12.70;;;4.10;99.90;;;;;;4878171;29;20235;-64
2022/04/15 04:48:01;;;;;;;28.33;12.03;;;4.20;99.90;;;;;;4879244;29;20192;-64
2022/04/15 04:50:28;;;;;;;25.83;10.90;;;4.30;99.90;;;;;;4877088;29;20187;-65
2022/04/15 04:52:54;;;;;;;26.40;11.03;;;4.40;99.90;;;;;;4878768;29;20271;-65
2022/04/15 04:55:20;;;;;;;23.57;10.97;;;4.50;99.90;;;;;;4878984;29;20235;-64
2022/04/15 04:57:46;;;;;;;32.40;11.07;;;4.60;99.90;;;;;;4878925;29;20181;-65
2022/04/15 05:00:14;;;;;;;24.57;10.83;;;4.70;99.90;;;;;;4878710;29;20195;-64
2022/04/15 05:02:40;;;;;;;24.83;11.13;;;4.80;99.90;;;;;;4878510;29;20184;-63
2022/04/15 05:05:07;;;;;;;34.40;11.80;;;5.00;99.90;;;;;;4861445;29;20219;-64
2022/04/15 05:07:32;;;;;;;31.67;13.00;;;5.10;99.90;;;;;;4877937;29;20408;-64
2022/04/15 05:09:58;;;;;;;31.90;12.90;;;5.30;99.90;;;;;;4878248;29;20211;-63
2022/04/15 05:12:24;;;;;;;34.90;11.67;;;5.40;99.90;;;;;;4878089;29;20240;-64
2022/04/15 05:14:50;;;;;;;20.80;8.97;;;5.50;99.90;;;;;;4878173;29;20184;-64
2022/04/15 05:17:16;;;;;;;36.17;10.83;;;5.60;99.90;;;;;;4861351;29;20545;-64
2022/04/15 05:19:43;;;;;;;31.70;10.07;;;5.60;99.90;;;;;;4877739;29;20196;-65
2022/04/15 05:22:09;;;;;;;18.33;7.83;;;5.80;99.90;;;;;;4878298;29;20224;-64
2022/04/15 05:24:35;;;;;;;21.37;9.07;;;5.90;99.90;;;;;;4876744;29;20787;-64
2022/04/15 05:27:01;;;;;;;23.87;9.03;;;6.10;99.90;;;;;;4878072;29;20194;-64
2022/04/15 05:29:27;;;;;;;50.90;22.33;;;6.20;99.90;;;;;;4877723;29;20607;-65
2022/04/15 05:31:52;;;;;;;64.10;25.53;;;6.40;99.90;;;;;;4861285;29;20645;-65
2022/04/15 05:34:18;;;;;;;62.27;23.63;;;6.50;99.90;;;;;;4860962;29;20191;-64
2022/04/15 05:36:44;;;;;;;50.80;24.07;;;6.60;99.90;;;;;;4877846;29;20200;-64
2022/04/15 05:39:10;;;;;;;58.83;25.27;;;6.60;99.90;;;;;;4877766;29;20645;-65
2022/04/15 05:41:35;;;;;;;57.33;23.20;;;6.70;99.90;;;;;;4877673;29;20218;-65
2022/04/15 05:44:03;;;;;;;67.47;24.50;;;6.70;99.90;;;;;;4860991;29;20296;-65
2022/04/15 05:46:30;;;;;;;52.70;22.27;;;6.90;99.90;;;;;;4877330;29;20260;-65
2022/04/15 05:48:56;;;;;;;49.20;23.93;;;6.90;99.90;;;;;;4877940;29;20190;-65
2022/04/15 05:51:21;;;;;;;71.30;24.87;;;7.00;99.90;;;;;;4877236;29;20226;-65
2022/04/15 05:53:47;;;;;;;44.40;21.03;;;7.10;99.90;;;;;;4877574;29;20204;-64
2022/04/15 05:56:13;;;;;;;50.47;18.67;;;7.30;99.90;;;;;;4877515;29;20321;-66
2022/04/15 05:58:40;;;;;;;38.90;13.63;;;7.50;99.90;;;;;;4877006;29;20184;-64
2022/04/15 06:01:09;;;;;;;23.87;8.63;;;7.80;99.90;;;;;;4877209;29;20292;-65
2022/04/15 06:03:35;;;;;;;30.97;9.07;;;8.00;99.90;;;;;;4877024;29;20181;-65
2022/04/15 06:06:01;;;;;;;18.43;8.03;;;8.30;99.90;;;;;;4876995;29;20611;-66
2022/04/15 06:08:28;;;;;;;21.27;8.10;;;8.50;99.90;;;;;;4877092;29;20195;-65
2022/04/15 06:10:53;;;;;;;29.90;8.30;;;8.70;99.90;;;;;;4877338;29;20185;-66
2022/04/15 06:13:22;;;;;;;15.53;7.10;;;9.00;99.90;;;;;;4860221;29;20271;-65
2022/04/15 06:15:56;;;;;;;16.30;8.17;;;9.10;99.90;;;;;;4877232;29;20188;-65
2022/04/15 06:18:29;;;;;;;18.70;7.80;;;9.30;99.90;;;;;;4876890;29;20712;-64
2022/04/15 06:20:55;;;;;;;14.23;7.27;;;9.40;99.90;;;;;;4876900;29;20272;-65
2022/04/15 06:23:21;;;;;;;15.67;6.13;;;9.60;99.90;;;;;;4876819;29;20573;-65
2022/04/15 06:25:47;;;;;;;19.50;7.00;;;9.70;98.90;;;;;;4877300;29;20240;-65
2022/04/15 06:28:13;;;;;;;19.30;7.50;;;9.90;98.70;;;;;;4877290;29;20198;-65
2022/04/15 06:30:39;;;;;;;48.27;19.73;;;10.10;98.80;;;;;;4876555;29;20197;-64
2022/04/15 06:33:06;;;;;;;49.53;19.70;;;10.30;99.10;;;;;;4860086;29;20190;-66
2022/04/15 06:35:36;;;;;;;44.50;20.10;;;10.40;99.10;;;;;;4876859;29;20286;-65
2022/04/15 06:38:02;;;;;;;46.30;19.13;;;10.50;99.40;;;;;;4876862;29;20181;-65
2022/04/15 06:40:28;;;;;;;52.80;20.07;;;10.50;98.80;;;;;;4877003;29;20194;-65
2022/04/15 06:42:53;;;;;;;48.10;20.30;;;10.60;98.70;;;;;;4860155;29;20182;-65
2022/04/15 06:45:19;;;;;;;66.83;22.73;;;10.70;98.50;;;;;;4876870;29;20234;-65
2022/04/15 06:47:45;;;;;;;49.33;20.27;;;10.90;98.60;;;;;;4876462;29;20194;-65
2022/04/15 06:50:11;;;;;;;43.37;18.90;;;10.90;98.20;;;;;;4876885;29;20217;-64
2022/04/15 06:52:36;;;;;;;41.70;19.17;;;11.10;98.10;;;;;;4876333;29;20513;-65
2022/04/15 06:55:06;;;;;;;36.93;17.07;;;11.30;98.30;;;;;;4876476;29;20192;-66
2022/04/15 06:57:32;;;;;;;42.17;16.57;;;11.50;97.80;;;;;;4876468;29;20181;-64
2022/04/15 06:59:58;;;;;;;54.23;17.70;;;11.60;97.50;;;;;;4878996;29;20184;-65
2022/04/15 07:02:26;;;;;;;55.47;16.73;;;11.80;97.20;;;;;;4880213;29;20225;-65
2022/04/15 07:04:52;;;;;;;34.87;13.63;;;12.10;96.70;;;;;;4879776;29;20243;-65
2022/04/15 07:07:17;;;;;;;25.63;10.73;;;12.30;96.40;;;;;;4880073;29;20322;-65
2022/04/15 07:09:44;;;;;;;33.40;14.47;;;12.50;95.30;;;;;;4880220;29;20679;-65
2022/04/15 07:12:10;;;;;;;33.00;15.23;;;12.70;95.20;;;;;;4880640;29;20191;-65
2022/04/15 07:14:36;;;;;;;37.67;14.17;;;12.90;95.10;;;;;;4879991;29;20294;-65
2022/04/15 07:17:02;;;;;;;35.17;13.83;;;13.10;94.50;;;;;;4880232;29;20229;-65
2022/04/15 07:19:28;;;;;;;69.27;19.33;;;13.20;94.50;;;;;;4880524;29;20295;-65
2022/04/15 07:21:54;;;;;;;29.07;12.03;;;13.30;93.90;;;;;;4879841;29;20783;-66
2022/04/15 07:24:20;;;;;;;34.37;14.57;;;13.50;93.20;;;;;;4879568;29;20288;-66
2022/04/15 07:26:46;;;;;;;43.07;13.50;;;13.70;93.30;;;;;;4879658;29;20227;-64
2022/04/15 07:29:12;;;;;;;29.97;10.87;;;13.80;93.30;;;;;;4879957;29;20203;-64
2022/04/15 07:31:39;;;;;;;30.00;12.37;;;14.00;91.10;;;;;;4879519;29;20190;-65
2022/04/15 07:34:06;;;;;;;61.30;13.57;;;14.20;91.10;;;;;;4880176;29;20732;-65
2022/04/15 07:39:02;;;;;;;44.97;14.70;;;14.60;91.10;;;;;;4880041;29;20479;-66
2022/04/15 07:41:28;;;;;;;25.30;11.77;;;14.80;90.50;;;;;;4862948;29;20324;-65
2022/04/15 07:43:53;;;;;;;23.90;9.67;;;14.90;87.80;;;;;;4879090;29;20276;-65
2022/04/15 07:46:19;;;;;;;53.03;17.30;;;15.10;83.80;;;;;;4862802;29;20220;-65
2022/04/15 07:48:45;;;;;;;41.57;16.60;;;15.20;90.00;;;;;;4879486;29;20196;-65
2022/04/15 07:51:10;;;;;;;22.57;9.70;;;15.30;89.10;;;;;;4879542;29;20551;-65
2022/04/15 07:53:36;;;;;;;24.87;10.67;;;15.40;83.70;;;;;;4878730;29;20243;-64
2022/04/15 07:56:02;;;;;;;24.90;8.50;;;15.50;79.50;;;;;;4879257;29;20345;-65
2022/04/15 07:58:29;;;;;;;29.90;9.23;;;15.60;77.50;;;;;;4879624;29;20534;-66
2022/04/15 08:00:54;;;;;;;25.23;9.23;;;15.80;76.90;;;;;;4879063;29;20549;-65
2022/04/15 08:03:23;;;;;;;25.10;11.83;;;16.00;75.70;;;;;;4879285;29;20191;-65
2022/04/15 08:05:49;;;;;;;24.13;8.90;;;16.20;73.10;;;;;;4879045;29;20311;-66
2022/04/15 08:08:15;;;;;;;19.63;8.90;;;16.40;71.60;;;;;;4879471;29;20307;-65
2022/04/15 08:10:41;;;;;;;20.43;8.73;;;16.50;71.30;;;;;;4878511;29;20199;-66
2022/04/15 08:13:07;;;;;;;34.30;8.73;;;16.60;68.10;;;;;;4879149;29;20191;-65
2022/04/15 08:15:33;;;;;;;17.93;7.63;;;16.60;66.90;;;;;;4878632;29;20189;-64
2022/04/15 08:17:59;;;;;;;23.57;8.70;;;16.80;67.30;;;;;;4878882;29;20630;-65
2022/04/15 08:20:25;;;;;;;23.23;9.00;;;16.90;67.50;;;;;;4879289;29;20673;-65
2022/04/15 08:22:51;;;;;;;24.57;8.83;;;17.00;67.30;;;;;;4878711;29;20192;-65
2022/04/15 08:25:17;;;;;;;20.07;9.10;;;17.10;66.70;;;;;;4879337;29;20216;-66
2022/04/15 08:27:42;;;;;;;22.00;9.60;;;17.20;65.90;;;;;;4878488;29;20653;-65
2022/04/15 08:30:08;;;;;;;25.23;9.27;;;17.30;65.50;;;;;;4879132;29;20682;-65
2022/04/15 08:32:34;;;;;;;21.67;9.20;;;17.40;65.20;;;;;;4878613;29;20220;-64
2022/04/15 08:35:01;;;;;;;20.90;7.80;;;17.50;63.80;;;;;;4878942;29;20192;-64
2022/04/15 08:37:27;;;;;;;20.37;8.30;;;17.60;63.00;;;;;;4878841;29;20608;-64
2022/04/15 08:39:53;;;;;;;22.57;8.20;;;17.70;62.70;;;;;;4878735;29;20188;-65
2022/04/15 08:42:20;;;;;;;26.27;11.00;;;17.70;63.30;;;;;;4878976;29;20257;-64
2022/04/15 08:44:50;;;;;;;20.83;8.47;;;17.80;63.40;;;;;;4878356;29;20253;-64
2022/04/15 08:47:16;;;;;;;31.00;11.60;;;17.90;61.00;;;;;;4878275;29;20188;-65
2022/04/15 08:49:41;;;;;;;20.33;10.60;;;17.90;66.70;;;;;;4878045;29;20194;-64
2022/04/15 08:52:12;;;;;;;30.73;9.93;;;18.00;66.10;;;;;;4878440;29;20238;-65
2022/04/15 08:54:38;;;;;;;30.80;10.23;;;18.10;65.90;;;;;;4877819;29;20280;-65
2022/04/15 08:57:05;;;;;;;22.63;10.53;;;18.20;63.80;;;;;;4878201;29;20236;-64
2022/04/15 08:59:31;;;;;;;24.20;10.50;;;18.40;64.50;;;;;;4878477;29;20184;-64
2022/04/15 09:01:57;;;;;;;30.07;11.33;;;18.50;64.90;;;;;;4861091;29;20204;-65
2022/04/15 09:04:23;;;;;;;35.60;11.60;;;18.60;63.70;;;;;;4878469;29;20192;-64
2022/04/15 09:07:00;;;;;;;29.83;10.50;;;18.70;64.20;;;;;;4876295;29;20224;-65
2022/04/15 09:09:30;;;;;;;25.87;12.40;;;18.80;63.40;;;;;;4878062;29;20267;-65
2022/04/15 09:11:57;;;;;;;29.23;11.93;;;18.90;63.90;;;;;;4861235;29;20228;-67
2022/04/15 09:14:23;;;;;;;33.57;11.83;;;19.10;63.70;;;;;;4878019;29;20199;-66
2022/04/15 09:16:49;;;;;;;25.50;11.53;;;19.20;63.10;;;;;;4878190;29;20274;-65
2022/04/15 09:19:17;;;;;;;22.27;10.37;;;19.30;61.50;;;;;;4877887;29;20259;-65
2022/04/15 09:21:52;;;;;;;33.40;13.00;;;19.30;60.80;;;;;;4876775;29;20188;-64
2022/04/15 09:24:25;;;;;;;30.25;12.02;;;19.50;61.70;;;;;;4877658;29;20192;-65
2022/04/15 09:26:53;;;;;;;27.75;11.32;;;19.60;60.70;;;;;;4877081;29;20688;-65
2022/04/15 09:29:21;;;;;;;38.72;11.07;;;19.60;60.10;;;;;;4878213;29;20208;-67
2022/04/15 09:31:47;;;;;;;30.98;11.38;;;19.60;60.00;;;;;;4877482;29;20248;-66
2022/04/15 09:34:13;;;;;;;26.17;12.40;;;19.70;59.40;;;;;;4877850;29;20249;-65
2022/04/15 09:36:39;;;;;;;33.35;13.15;;;19.90;60.20;;;;;;4860787;29;20674;-66
2022/04/15 09:39:10;;;;;;;34.85;11.93;;;20.10;58.90;;;;;;4877574;29;20203;-65
2022/04/15 09:41:41;;;;;;;24.35;8.50;;;20.40;57.30;;;;;;4876784;29;20605;-65
2022/04/15 09:44:11;;;;;;;22.55;8.90;;;20.30;55.00;;;;;;4876677;29;20196;-64
2022/04/15 09:46:37;;;;;;;20.02;9.43;;;20.30;53.80;;;;;;4877212;29;20295;-65
2022/04/15 09:49:08;;;;;;;21.85;9.68;;;20.40;55.10;;;;;;4877447;29;20189;-66
2022/04/15 09:51:44;;;;;;;17.83;9.43;;;20.40;55.00;;;;;;4877370;29;20189;-67
2022/04/15 09:54:31;;;;;;;30.50;9.95;;;20.20;55.20;;;;;;4877279;29;20286;-66
2022/04/15 09:56:59;;;;;;;20.52;9.32;;;20.10;56.40;;;;;;4877324;29;20243;-64
2022/04/15 09:59:28;;;;;;;21.63;9.20;;;20.40;55.40;;;;;;4875858;29;20208;-64
2022/04/15 10:01:58;;;;;;;24.20;7.95;;;20.60;53.40;;;;;;4876402;29;20237;-64
2022/04/15 10:04:25;;;;;;;21.92;8.27;;;20.60;52.60;;;;;;4876987;29;20184;-66
2022/04/15 10:06:51;;;;;;;18.95;8.63;;;20.70;52.10;;;;;;4876738;29;20232;-64
2022/04/15 10:09:18;;;;;;;16.65;6.60;;;20.90;51.70;;;;;;4877568;29;20180;-64
2022/04/15 10:11:45;;;;;;;22.52;8.40;;;21.20;50.90;;;;;;4876627;29;20192;-65
2022/04/15 10:14:12;;;;;;;14.32;6.57;;;21.30;49.30;;;;;;4876870;29;20252;-65
2022/04/15 10:16:40;;;;;;;19.25;8.32;;;21.40;49.20;;;;;;4876643;29;20653;-64
2022/04/15 10:19:07;;;;;;;33.75;9.40;;;21.50;49.40;;;;;;4876689;29;20184;-64
2022/04/15 10:21:36;;;;;;;19.55;8.52;;;21.60;49.70;;;;;;4875324;29;20515;-65
2022/04/15 10:24:03;;;;;;;20.25;7.20;;;21.70;48.00;;;;;;4876792;29;20558;-64
2022/04/15 10:26:35;;;;;;;16.80;6.53;;;21.90;48.90;;;;;;4877057;29;20263;-64
2022/04/15 10:29:04;;;;;;;18.55;7.53;;;21.90;46.10;;;;;;4877290;29;20255;-66
2022/04/15 10:31:39;;;;;;;16.48;7.05;;;21.80;46.40;;;;;;4876536;29;20248;-65
2022/04/15 10:34:13;;;;;;;23.58;7.03;;;21.70;46.40;;;;;;4876099;29;20187;-65
2022/04/15 10:36:50;;;;;;;36.88;15.00;;;21.70;47.10;;;;;;4859839;29;20194;-65
2022/04/15 10:39:24;;;;;;;19.92;6.43;;;21.90;46.80;;;;;;4876672;29;20212;-64
2022/04/15 10:41:55;;;;;;;30.70;6.07;;;22.20;44.10;;;;;;4876473;29;20185;-65
2022/04/15 10:44:38;;;;;;;17.98;7.80;;;22.10;40.50;;;;;;4877126;29;20185;-66
2022/04/15 10:47:19;;;;;;;18.40;7.75;;;22.30;43.00;;;;;;4876740;29;20185;-65
2022/04/15 10:49:58;;;;;;;13.63;6.55;;;22.50;42.90;;;;;;4876579;29;20287;-65
2022/04/15 10:52:25;;;;;;;13.30;6.95;;;22.80;42.30;;;;;;4876323;29;20260;-67
2022/04/15 10:55:02;;;;;;;20.30;8.18;;;23.00;42.50;;;;;;4874927;29;20251;-63
2022/04/15 10:57:33;;;;;;;25.70;8.20;;;23.00;42.30;;;;;;4877164;29;20624;-66
2022/04/15 11:02:50;;;;;;;23.42;9.95;;;22.90;43.00;;;;;;4876185;29;20194;-65
2022/04/15 11:05:34;;;;;;;23.63;7.65;;;23.10;40.40;;;;;;4876651;29;20216;-66
2022/04/15 11:08:21;;;;;;;17.00;7.30;;;23.30;41.80;;;;;;4875863;29;20668;-65
2022/04/15 11:10:54;;;;;;;18.55;8.07;;;23.50;40.40;;;;;;4876101;29;20224;-64
2022/04/15 11:13:27;;;;;;;17.90;6.65;;;23.30;40.20;;;;;;4876193;29;20180;-65
2022/04/15 11:16:06;;;;;;;17.48;6.85;;;23.40;39.20;;;;;;4875798;29;20195;-64
2022/04/15 11:18:46;;;;;;;16.58;7.22;;;23.60;39.60;;;;;;4876791;29;20188;-65
2022/04/15 11:21:37;;;;;;;15.13;6.70;;;24.10;38.30;;;;;;4876485;29;20192;-65
2022/04/15 11:24:08;;;;;;;15.43;6.47;;;24.60;38.20;;;;;;4876678;29;20188;-64
2022/04/15 11:26:36;;;;;;;18.50;9.32;;;24.90;37.40;;;;;;4876678;29;20255;-65
2022/04/15 11:29:05;;;;;;;13.73;6.45;;;25.10;37.70;;;;;;4875812;29;20180;-65
2022/04/15 11:31:33;;;;;;;12.32;5.88;;;25.20;35.80;;;;;;4876678;29;20189;-65
2022/04/15 11:34:10;;;;;;;15.60;6.88;;;25.10;35.00;;;;;;4876808;29;20216;-64
2022/04/15 11:36:39;;;;;;;13.50;4.88;;;25.40;34.50;;;;;;4876018;29;20773;-66
2022/04/15 11:39:08;;;;;;;14.38;6.20;;;26.10;33.50;;;;;;4875865;29;20192;-65
2022/04/15 11:41:34;;;;;;;11.07;6.28;;;27.70;33.10;;;;;;4876338;29;20271;-65
2022/04/15 11:44:04;;;;;;;14.18;6.63;;;29.30;31.10;;;;;;4876062;29;20188;-65
2022/04/15 11:46:36;;;;;;;23.77;8.00;;;30.50;29.90;;;;;;4878491;29;20232;-67
2022/04/15 11:49:04;;;;;;;15.70;6.63;;;31.80;29.20;;;;;;4879095;29;20189;-65
2022/04/15 11:51:30;;;;;;;29.23;7.63;;;32.80;27.60;;;;;;4879733;29;20197;-65
2022/04/15 11:53:57;;;;;;;13.20;5.15;;;33.40;26.50;;;;;;4878461;29;20198;-65
2022/04/15 11:56:26;;;;;;;15.82;5.63;;;33.60;25.30;;;;;;4879662;29;20239;-66
2022/04/15 11:58:52;;;;;;;19.40;6.60;;;34.00;25.10;;;;;;4878874;29;20275;-67
2022/04/15 12:01:29;;;;;;;14.95;5.65;;;34.40;25.30;;;;;;4879496;29;20208;-66
2022/04/15 12:03:55;;;;;;;14.80;6.40;;;34.50;25.00;;;;;;4879180;29;20215;-64
2022/04/15 12:06:22;;;;;;;13.73;6.20;;;35.50;24.60;;;;;;4879227;29;20693;-65
2022/04/15 12:08:49;;;;;;;10.73;4.60;;;35.50;24.40;;;;;;4879060;29;20295;-65
2022/04/15 12:11:15;;;;;;;16.55;5.22;;;34.20;23.70;;;;;;4879421;29;20208;-66
2022/04/15 12:13:40;;;;;;;13.23;5.80;;;33.80;24.60;;;;;;4862125;29;20228;-64
2022/04/15 12:16:06;;;;;;;16.25;6.50;;;34.40;24.60;;;;;;4879270;29;20624;-67
2022/04/15 12:18:33;;;;;;;13.50;6.38;;;34.40;24.40;;;;;;4861764;29;20180;-65
2022/04/15 12:20:59;;;;;;;17.40;6.15;;;34.80;23.70;;;;;;4878252;29;20665;-65
2022/04/15 12:23:26;;;;;;;14.75;6.75;;;34.30;24.10;;;;;;4879123;29;20192;-66
2022/04/15 12:26:06;;;;;;;14.02;5.82;;;35.30;24.90;;;;;;4878445;29;20323;-65
2022/04/15 12:31:32;;;;;;;20.50;6.72;;;34.60;23.80;;;;;;4868013;29;20188;-65
2022/04/15 12:33:59;;;;;;;13.05;5.78;;;34.20;24.00;;;;;;4878395;29;20185;-66
2022/04/15 12:36:37;;;;;;;15.00;6.97;;;35.90;23.60;;;;;;4878736;29;20215;-66
2022/04/15 12:39:04;;;;;;;16.00;7.60;;;37.00;23.50;;;;;;4878548;29;20646;-65
2022/04/15 12:41:45;;;;;;;16.58;7.00;;;37.70;23.20;;;;;;4878960;29;20176;-66
2022/04/15 12:44:27;;;;;;;17.33;7.82;;;37.10;23.00;;;;;;4878466;29;20217;-66
2022/04/15 12:47:00;;;;;;;23.40;8.57;;;36.30;24.10;;;;;;4878164;29;20220;-65